Airfield :
LOGIN :

Register | Disclaimer

   EN    FR    IT 

 










Legend :    VFR   Marginal VFR   IFR   Intensive IFR   Very Intensive IFR
Visi :
Ceiling :
>= 8 km
>= 3000ft
5 to 8 km
1000 to 3000 ft
1500m to 5 km
500 to 1000 ft
800 to 1500m
200 to 500 ft
< 800m
< 200 ft
Symbols :   Thunderstorms  Fog  Heavy snow  Heavy precipitations  Wind > 20 kt
SIGMETs :     Misc.  Thunderstorms  Icing  Turbulence  Mountain Waves  Volcanic Ashes







- Airport Elevation : 479 ft
- IATA code : DOL
- Download approach charts


LFRG - Deauville

CURRENT METAR :
  • 201700Z AUTO 06003KT 3900 -SNRA BR SCT006 BKN020 OVC031 01/00 Q1003 TEMPO RASN BKN008

EXPIRED METARs :
  • 201630Z AUTO VRB03KT 5000 -RA BR BKN006 BKN022 OVC031 01/00 Q1003 TEMPO RASN
  • 201600Z AUTO 08004KT 040V110 5000 -RA BR OVC007 01/00 Q1003 TEMPO RASN
  • 201530Z AUTO 07005KT 040V100 5000 -RA BR BKN009 BKN016 OVC024 02/00 Q1003 TEMPO RASN
  • 201500Z AUTO 07006KT 030V110 8000 BKN011 BKN017 BKN024 02/00 Q1002 TEMPO 3000 RASN BKN008
  • 201430Z AUTO 07006KT 030V110 9000 FEW011 OVC019 02/00 Q1002 TEMPO 3000 RASN BKN008

TAF TAF LFRG
Valid from the 20 at 15:00 until the 21 at 00:00 UTC


201400Z 2015/2024 07007KT 9999 BKN015
TEMPO 2015/2020 3000 RASN BKN008
TEMPO 2020/2024 BKN008
BECMG 2018/2021 13005KT
BECMG 2022/2024 18007KT
ATIS : +33 2 31 65 65 36
No reported NOTAMs for that airfield.



MET'MAP, your aeronautical weather chart ! - Copyright ORBIFLY December 2007 - Disclaimer

ORBIFLY MET'MAP TEAM :

Programming & Development : Alexandra Zaïnal
Concept & Development : Baudouin d'Aumeries
Co-Development & Prog : Marc-Olivier Méhu
Technical & hardware support : Manuel Goepfert

Contact : metmap@orbifly.com




SOURCES & CREDITS :

   NOAA